createdAt,value
2016-03-02T00:00:51.528Z,0
2016-03-02T00:01:51.562Z,0
2016-03-02T00:02:51.565Z,0
2016-03-02T00:03:51.614Z,0
2016-03-02T00:04:51.601Z,0
2016-03-02T00:05:51.604Z,0
2016-03-02T00:06:51.623Z,0
2016-03-02T00:07:51.625Z,0
2016-03-02T00:08:51.659Z,0
2016-03-02T00:09:51.661Z,0
2016-03-02T00:10:51.680Z,0
2016-03-02T00:11:51.697Z,0
2016-03-02T00:12:51.717Z,0
2016-03-02T00:13:51.719Z,0
2016-03-02T00:14:51.597Z,0
2016-03-02T00:15:51.772Z,0
2016-03-02T00:16:51.789Z,0
2016-03-02T00:17:51.777Z,0
2016-03-02T00:18:51.811Z,0
2016-03-02T00:19:51.814Z,0
2016-03-02T00:20:51.832Z,0
2016-03-02T00:21:51.834Z,0
2016-03-02T00:22:51.900Z,0
2016-03-02T00:23:51.871Z,0
2016-03-02T00:24:51.890Z,0
2016-03-02T00:25:51.908Z,0
2016-03-02T00:26:51.926Z,0
2016-03-02T00:27:51.960Z,0
2016-03-02T00:28:51.946Z,0
2016-03-02T00:29:51.966Z,0
2016-03-02T00:30:51.968Z,0
2016-03-02T00:31:52.018Z,0
2016-03-02T00:32:52.004Z,0
2016-03-02T00:33:52.039Z,0
2016-03-02T00:34:52.026Z,0
2016-03-02T00:35:52.045Z,0
2016-03-02T00:36:52.079Z,0
2016-03-02T00:37:52.096Z,0
2016-03-02T00:38:52.098Z,0
2016-03-02T00:39:52.102Z,0
2016-03-02T00:40:52.120Z,0
2016-03-02T00:41:52.139Z,0
2016-03-02T00:42:52.141Z,0
2016-03-02T00:43:52.175Z,0
2016-03-02T00:44:52.177Z,0
2016-03-02T00:45:52.227Z,0
2016-03-02T00:46:52.230Z,0
2016-03-02T00:47:52.233Z,0
2016-03-02T00:48:52.266Z,0
2016-03-02T00:49:52.253Z,0
2016-03-02T00:50:52.288Z,0
2016-03-02T00:51:52.274Z,0
2016-03-02T00:52:52.324Z,0
2016-03-02T00:53:52.326Z,0
2016-03-02T00:54:52.361Z,0
2016-03-02T00:55:52.348Z,0
2016-03-02T00:56:52.366Z,0
2016-03-02T00:57:52.369Z,0
2016-03-02T00:58:52.402Z,0
2016-03-02T00:59:52.390Z,0
2016-03-02T01:00:52.424Z,0
2016-03-02T01:01:52.443Z,0
2016-03-02T01:02:52.460Z,0
2016-03-02T01:03:52.462Z,0
2016-03-02T01:04:52.498Z,0
2016-03-02T01:05:52.515Z,0
2016-03-02T01:06:52.534Z,0
2016-03-02T01:07:52.520Z,0
2016-03-02T01:08:52.523Z,0
2016-03-02T01:09:52.542Z,0
2016-03-02T01:10:52.559Z,0
2016-03-02T01:11:52.563Z,0
2016-03-02T01:12:52.597Z,0
2016-03-02T01:13:52.614Z,0
2016-03-02T01:14:52.633Z,0
2016-03-02T01:15:52.636Z,0
2016-03-02T01:16:52.655Z,0
2016-03-02T01:17:52.673Z,0
2016-03-02T01:18:52.691Z,0
2016-03-02T01:19:52.694Z,0
2016-03-02T01:20:52.711Z,0
2016-03-02T01:21:52.730Z,0
2016-03-02T01:22:52.764Z,0
2016-03-02T01:23:52.766Z,0
2016-03-02T01:24:52.769Z,0
2016-03-02T01:25:52.772Z,0
2016-03-02T01:26:52.806Z,0
2016-03-02T01:27:52.809Z,0
2016-03-02T01:28:52.827Z,0
2016-03-02T01:29:52.846Z,0
2016-03-02T01:30:52.863Z,0
2016-03-02T01:31:52.882Z,0
2016-03-02T01:32:52.744Z,0
2016-03-02T01:33:52.903Z,0
2016-03-02T01:34:52.906Z,0
2016-03-02T01:35:52.924Z,0
2016-03-02T01:36:52.959Z,0
2016-03-02T01:37:52.945Z,0
2016-03-02T01:38:52.979Z,0
2016-03-02T01:39:52.998Z,0
2016-03-02T01:40:53.000Z,0
2016-03-02T01:41:53.018Z,0
2016-03-02T01:42:53.021Z,0
2016-03-02T01:43:53.070Z,0
2016-03-02T01:44:53.058Z,0
2016-03-02T01:45:53.091Z,0
2016-03-02T01:46:53.079Z,0
2016-03-02T01:47:53.128Z,0
2016-03-02T01:48:52.975Z,0
2016-03-02T01:49:53.134Z,0
2016-03-02T01:50:53.183Z,0
2016-03-02T01:51:53.154Z,0
2016-03-02T01:52:53.173Z,0
2016-03-02T01:53:53.207Z,0
2016-03-02T01:54:53.210Z,0
2016-03-02T01:55:53.243Z,0
2016-03-02T01:56:53.246Z,0
2016-03-02T01:57:53.265Z,0
2016-03-02T01:58:53.282Z,0
2016-03-02T01:59:53.302Z,0
2016-03-02T02:00:53.304Z,0
2016-03-02T02:01:53.384Z,0
2016-03-02T02:02:53.324Z,0
2016-03-02T02:03:53.327Z,0
2016-03-02T02:04:53.362Z,0
2016-03-02T02:05:53.295Z,0
2016-03-02T02:06:53.392Z,0
2016-03-02T02:07:53.395Z,0
2016-03-02T02:08:53.444Z,0
2016-03-02T02:09:53.416Z,0
2016-03-02T02:10:53.450Z,0
2016-03-02T02:11:53.452Z,0
2016-03-02T02:12:53.471Z,0
2016-03-02T02:13:53.489Z,0
2016-03-02T02:14:53.492Z,0
2016-03-02T02:15:53.525Z,0
2016-03-02T02:16:53.591Z,0
2016-03-02T02:17:53.547Z,0
2016-03-02T02:18:53.549Z,0
2016-03-02T02:19:53.615Z,0
2016-03-02T02:20:53.586Z,0
2016-03-02T02:21:53.605Z,0
2016-03-02T02:22:53.623Z,0
2016-03-02T02:23:53.641Z,0
2016-03-02T02:24:53.660Z,0
2016-03-02T02:25:53.662Z,0
2016-03-02T02:26:53.680Z,0
2016-03-02T02:27:53.683Z,0
2016-03-02T02:28:53.701Z,0
2016-03-02T02:29:53.720Z,0
2016-03-02T02:30:53.737Z,0
2016-03-02T02:31:53.757Z,0
2016-03-02T02:32:53.775Z,0
2016-03-02T02:33:53.621Z,0
2016-03-02T02:34:53.812Z,0
2016-03-02T02:35:53.798Z,0
2016-03-02T02:36:53.847Z,0
2016-03-02T02:37:53.851Z,0
2016-03-02T02:38:53.869Z,0
2016-03-02T02:39:53.856Z,0
2016-03-02T02:40:53.874Z,0
2016-03-02T02:41:53.908Z,0
2016-03-02T02:42:53.911Z,0
2016-03-02T02:43:53.772Z,0
2016-03-02T02:44:53.948Z,0
2016-03-02T02:45:53.966Z,0
2016-03-02T02:46:53.983Z,0
2016-03-02T02:47:54.002Z,0
2016-03-02T02:48:54.005Z,0
2016-03-02T02:49:53.883Z,0
2016-03-02T02:50:54.041Z,0
2016-03-02T02:51:54.076Z,0
2016-03-02T02:52:54.063Z,0
2016-03-02T02:53:54.096Z,0
2016-03-02T02:54:54.085Z,0
2016-03-02T02:55:54.118Z,0
2016-03-02T02:56:54.121Z,0
2016-03-02T02:57:54.138Z,0
2016-03-02T02:58:54.157Z,0
2016-03-02T02:59:54.160Z,0
2016-03-02T03:00:54.193Z,0
2016-03-02T03:01:54.196Z,0
2016-03-02T03:02:54.215Z,0
2016-03-02T03:03:54.217Z,0
2016-03-02T03:04:54.251Z,0
2016-03-02T03:05:54.254Z,0
2016-03-02T03:06:54.288Z,0
2016-03-02T03:07:54.290Z,0
2016-03-02T03:08:54.309Z,0
2016-03-02T03:09:54.312Z,0
2016-03-02T03:10:54.330Z,0
2016-03-02T03:11:54.347Z,0
2016-03-02T03:12:54.351Z,0
2016-03-02T03:13:54.369Z,0
2016-03-02T03:14:54.388Z,0
2016-03-02T03:15:54.406Z,0
2016-03-02T03:16:54.408Z,0
2016-03-02T03:17:54.442Z,0
2016-03-02T03:18:54.444Z,0
2016-03-02T03:19:54.917Z,0
2016-03-02T03:20:54.482Z,0
2016-03-02T03:21:54.515Z,0
2016-03-02T03:22:54.502Z,0
2016-03-02T03:23:54.537Z,0
2016-03-02T03:24:54.524Z,0
2016-03-02T03:25:54.589Z,0
2016-03-02T03:26:54.561Z,0
2016-03-02T03:27:54.594Z,0
2016-03-02T03:28:54.596Z,0
2016-03-02T03:29:54.632Z,0
2016-03-02T03:30:54.618Z,0
2016-03-02T03:31:54.652Z,0
2016-03-02T03:32:54.639Z,0
2016-03-02T03:33:54.689Z,0
2016-03-02T03:34:54.676Z,0
2016-03-02T03:35:54.725Z,0
2016-03-02T03:36:54.713Z,0
2016-03-02T03:37:54.731Z,0
2016-03-02T03:38:54.764Z,0
2016-03-02T03:39:54.595Z,0
2016-03-02T03:40:54.770Z,0
2016-03-02T03:41:54.866Z,0
2016-03-02T03:42:54.806Z,0
2016-03-02T03:43:54.841Z,0
2016-03-02T03:44:54.828Z,0
2016-03-02T03:45:54.846Z,0
2016-03-02T03:46:54.708Z,0
2016-03-02T03:47:54.883Z,0
2016-03-02T03:48:54.916Z,0
2016-03-02T03:49:54.966Z,0
2016-03-02T03:50:54.905Z,0
2016-03-02T03:51:54.955Z,0
2016-03-02T03:52:54.943Z,0
2016-03-02T03:53:54.960Z,0
2016-03-02T03:54:54.980Z,0
2016-03-02T03:55:55.013Z,0
2016-03-02T03:56:55.032Z,0
2016-03-02T03:57:55.019Z,0
2016-03-02T03:58:55.037Z,0
2016-03-02T03:59:55.040Z,0
2016-03-02T04:00:55.074Z,0
2016-03-02T04:01:55.061Z,0
2016-03-02T04:02:55.095Z,0
2016-03-02T04:03:54.956Z,0
2016-03-02T04:04:55.132Z,0
2016-03-02T04:05:55.134Z,0
2016-03-02T04:06:55.153Z,0
2016-03-02T04:07:55.170Z,0
2016-03-02T04:08:55.189Z,0
2016-03-02T04:09:55.207Z,0
2016-03-02T04:10:55.210Z,0
2016-03-02T04:11:55.073Z,0
2016-03-02T04:12:55.247Z,0
2016-03-02T04:13:55.264Z,0
2016-03-02T04:14:55.299Z,0
2016-03-02T04:15:55.302Z,0
2016-03-02T04:16:55.304Z,0
2016-03-02T04:17:55.308Z,0
2016-03-02T04:18:55.325Z,0
2016-03-02T04:19:55.343Z,0
2016-03-02T04:20:55.361Z,0
2016-03-02T04:21:55.380Z,0
2016-03-02T04:22:55.399Z,0
2016-03-02T04:23:55.401Z,0
2016-03-02T04:24:55.419Z,0
2016-03-02T04:25:55.438Z,0
2016-03-02T04:26:55.440Z,0
2016-03-02T04:27:55.460Z,0
2016-03-02T04:28:55.477Z,0
2016-03-02T04:29:55.496Z,0
2016-03-02T04:30:55.513Z,0
2016-03-02T04:31:55.532Z,0
2016-03-02T04:32:55.551Z,0
2016-03-02T04:33:55.568Z,0
2016-03-02T04:34:55.571Z,0
2016-03-02T04:35:55.340Z,0
2016-03-02T04:36:55.623Z,0
2016-03-02T04:37:55.595Z,0
2016-03-02T04:38:55.629Z,0
2016-03-02T04:39:55.648Z,0
2016-03-02T04:40:55.650Z,0
2016-03-02T04:41:55.512Z,0
2016-03-02T04:42:55.687Z,0
2016-03-02T04:43:55.706Z,0
2016-03-02T04:44:55.723Z,0
2016-03-02T04:45:55.742Z,0
2016-03-02T04:46:55.760Z,0
2016-03-02T04:47:55.778Z,0
2016-03-02T04:48:55.781Z,0
2016-03-02T04:49:55.783Z,0
2016-03-02T04:50:55.802Z,0
2016-03-02T04:51:55.819Z,0
2016-03-02T04:52:55.823Z,0
2016-03-02T04:53:55.857Z,0
2016-03-02T04:54:55.859Z,0
2016-03-02T04:55:55.894Z,0
2016-03-02T04:56:55.724Z,0
2016-03-02T04:57:55.930Z,0
2016-03-02T04:58:55.918Z,0
2016-03-02T04:59:55.951Z,0
2016-03-02T05:00:55.954Z,0
2016-03-02T05:01:55.987Z,0
2016-03-02T05:02:55.975Z,0
2016-03-02T05:03:56.009Z,0
2016-03-02T05:04:56.012Z,0
2016-03-02T05:05:56.076Z,0
2016-03-02T05:06:56.048Z,0
2016-03-02T05:07:56.051Z,0
2016-03-02T05:08:56.069Z,0
2016-03-02T05:09:56.088Z,0
2016-03-02T05:10:56.106Z,0
2016-03-02T05:11:56.109Z,0
2016-03-02T05:12:56.127Z,0
2016-03-02T05:13:56.145Z,0
2016-03-02T05:14:56.164Z,0
2016-03-02T05:15:56.181Z,0
2016-03-02T05:16:56.184Z,0
2016-03-02T05:17:56.218Z,0
2016-03-02T05:18:56.221Z,0
2016-03-02T05:19:56.255Z,0
2016-03-02T05:20:56.242Z,0
2016-03-02T05:21:56.260Z,0
2016-03-02T05:22:56.278Z,0
2016-03-02T05:23:56.297Z,0
2016-03-02T05:24:56.331Z,0
2016-03-02T05:25:56.333Z,0
2016-03-02T05:26:56.352Z,0
2016-03-02T05:27:56.371Z,0
2016-03-02T05:28:56.357Z,0
2016-03-02T05:29:56.376Z,0
2016-03-02T05:30:56.394Z,0
2016-03-02T05:31:56.412Z,0
2016-03-02T05:32:56.415Z,0
2016-03-02T05:33:56.449Z,0
2016-03-02T05:34:56.468Z,0
2016-03-02T05:35:56.485Z,0
2016-03-02T05:36:56.503Z,0
2016-03-02T05:37:56.507Z,0
2016-03-02T05:38:56.509Z,0
2016-03-02T05:39:56.543Z,4
2016-03-02T05:40:56.546Z,4
2016-03-02T05:41:56.548Z,4
2016-03-02T05:42:56.567Z,4
2016-03-02T05:43:56.601Z,4
2016-03-02T05:44:56.603Z,4
2016-03-02T05:45:56.622Z,4
2016-03-02T05:46:56.639Z,8
2016-03-02T05:47:56.642Z,4
2016-03-02T05:48:56.661Z,8
2016-03-02T05:49:56.663Z,8
2016-03-02T05:50:56.698Z,12
2016-03-02T05:51:56.716Z,12
2016-03-02T05:52:56.734Z,16
2016-03-02T05:53:56.737Z,16
2016-03-02T05:54:56.755Z,16
2016-03-02T05:55:56.774Z,20
2016-03-02T05:56:56.776Z,20
2016-03-02T05:57:56.810Z,28
2016-03-02T05:58:56.829Z,32
2016-03-02T05:59:56.846Z,36
2016-03-02T06:00:56.850Z,44
2016-03-02T06:01:56.852Z,48
2016-03-02T06:02:56.870Z,48
2016-03-02T06:03:56.873Z,56
2016-03-02T06:04:56.923Z,64
2016-03-02T06:05:56.879Z,68
2016-03-02T06:06:56.943Z,72
2016-03-02T06:07:56.946Z,76
2016-03-02T06:08:56.965Z,80
2016-03-02T06:09:56.967Z,76
2016-03-02T06:10:57.002Z,80
2016-03-02T06:11:57.004Z,76
2016-03-02T06:12:57.038Z,80
2016-03-02T06:13:57.056Z,84
2016-03-02T06:14:57.059Z,80
2016-03-02T06:15:57.062Z,88
2016-03-02T06:16:57.095Z,96
2016-03-02T06:17:57.098Z,104
2016-03-02T06:18:57.117Z,108
2016-03-02T06:19:57.119Z,100
2016-03-02T06:20:57.153Z,108
2016-03-02T06:21:57.156Z,108
2016-03-02T06:22:57.189Z,116
2016-03-02T06:23:57.177Z,112
2016-03-02T06:24:57.211Z,120
2016-03-02T06:25:57.213Z,128
2016-03-02T06:26:57.216Z,128
2016-03-02T06:27:57.249Z,128
2016-03-02T06:28:57.285Z,132
2016-03-02T06:29:57.287Z,132
2016-03-02T06:30:57.290Z,128
2016-03-02T06:31:57.308Z,140
2016-03-02T06:32:57.326Z,156
2016-03-02T06:33:57.454Z,164
2016-03-02T06:34:57.472Z,176
2016-03-02T06:35:57.365Z,180
2016-03-02T06:36:57.493Z,192
2016-03-02T06:37:57.574Z,192
2016-03-02T06:38:57.405Z,200
2016-03-02T06:39:57.454Z,220
2016-03-02T06:40:57.551Z,240
2016-03-02T06:41:57.584Z,236
2016-03-02T06:42:57.588Z,236
2016-03-02T06:43:57.481Z,256
2016-03-02T06:44:57.514Z,260
2016-03-02T06:45:57.517Z,248
2016-03-02T06:46:57.536Z,232
2016-03-02T06:47:57.554Z,200
2016-03-02T06:48:57.589Z,172
2016-03-02T06:49:57.591Z,152
2016-03-02T06:50:57.608Z,140
2016-03-02T06:51:57.611Z,132
2016-03-02T06:52:57.739Z,144
2016-03-02T06:53:57.648Z,164
2016-03-02T06:54:57.651Z,172
2016-03-02T06:55:57.778Z,172
2016-03-02T06:56:57.672Z,168
2016-03-02T06:57:57.721Z,172
2016-03-02T06:58:57.787Z,180
2016-03-02T06:59:57.758Z,184
2016-03-02T07:00:57.746Z,164
2016-03-02T07:01:57.779Z,168
2016-03-02T07:02:57.861Z,160
2016-03-02T07:03:57.894Z,176
2016-03-02T07:04:57.818Z,212
2016-03-02T07:05:57.821Z,300
2016-03-02T07:06:57.918Z,360
2016-03-02T07:07:57.858Z,396
2016-03-02T07:08:57.877Z,436
2016-03-02T07:09:57.879Z,456
2016-03-02T07:10:57.898Z,420
2016-03-02T07:11:57.915Z,412
2016-03-02T07:12:57.982Z,424
2016-03-02T07:13:58.093Z,488
2016-03-02T07:14:57.984Z,540
2016-03-02T07:15:58.001Z,616
2016-03-02T07:16:57.990Z,652
2016-03-02T07:17:57.992Z,660
2016-03-02T07:18:58.026Z,680
2016-03-02T07:19:58.028Z,704
2016-03-02T07:20:57.890Z,748
2016-03-02T07:21:58.065Z,756
2016-03-02T07:22:58.083Z,772
2016-03-02T07:23:58.320Z,816
2016-03-02T07:24:58.136Z,792
2016-03-02T07:25:58.139Z,752
2016-03-02T07:26:58.141Z,668
2016-03-02T07:27:58.160Z,564
2016-03-02T07:28:58.162Z,592
2016-03-02T07:29:58.181Z,600
2016-03-02T07:30:58.200Z,620
2016-03-02T07:31:58.233Z,548
2016-03-02T07:32:58.251Z,496
2016-03-02T07:33:58.253Z,504
2016-03-02T07:34:58.257Z,488
2016-03-02T07:35:58.276Z,528
2016-03-02T07:36:58.294Z,540
2016-03-02T07:37:58.312Z,600
2016-03-02T07:38:58.314Z,584
2016-03-02T07:39:58.349Z,488
2016-03-02T07:40:58.351Z,424
2016-03-02T07:41:58.369Z,384
2016-03-02T07:42:58.388Z,384
2016-03-02T07:43:58.405Z,380
2016-03-02T07:44:58.425Z,404
2016-03-02T07:45:58.427Z,436
2016-03-02T07:46:58.446Z,428
2016-03-02T07:47:58.463Z,356
2016-03-02T07:48:58.513Z,340
2016-03-02T07:49:58.516Z,356
2016-03-02T07:50:58.519Z,380
2016-03-02T07:51:58.537Z,380
2016-03-02T07:52:58.539Z,392
2016-03-02T07:53:58.557Z,416
2016-03-02T07:54:58.576Z,428
2016-03-02T07:55:58.594Z,456
2016-03-02T07:56:58.612Z,512
2016-03-02T07:57:58.615Z,524
2016-03-02T07:58:58.634Z,548
2016-03-02T07:59:58.652Z,580
2016-03-02T08:00:58.670Z,592
2016-03-02T08:01:58.704Z,564
2016-03-02T08:02:58.800Z,560
2016-03-02T08:03:58.725Z,588
2016-03-02T08:04:58.728Z,612
2016-03-02T08:05:58.747Z,696
2016-03-02T08:06:58.765Z,656
2016-03-02T08:07:58.783Z,804
2016-03-02T08:08:58.802Z,804
2016-03-02T08:09:58.805Z,756
2016-03-02T08:10:58.807Z,660
2016-03-02T08:11:58.841Z,716
2016-03-02T08:12:58.859Z,640
2016-03-02T08:13:58.878Z,588
2016-03-02T08:14:58.896Z,604
2016-03-02T08:15:58.898Z,624
2016-03-02T08:16:58.932Z,644
2016-03-02T08:17:58.935Z,636
2016-03-02T08:18:58.954Z,604
2016-03-02T08:19:58.972Z,584
2016-03-02T08:20:59.006Z,492
2016-03-02T08:21:58.993Z,504
2016-03-02T08:22:58.996Z,480
2016-03-02T08:23:59.045Z,536
2016-03-02T08:24:59.063Z,556
2016-03-02T08:25:59.050Z,560
2016-03-02T08:26:59.068Z,596
2016-03-02T08:27:59.087Z,580
2016-03-02T08:28:59.106Z,572
2016-03-02T08:29:59.109Z,572
2016-03-02T08:30:59.142Z,624
2016-03-02T08:31:59.145Z,668
2016-03-02T08:32:59.179Z,708
2016-03-02T08:33:59.181Z,636
2016-03-02T08:34:59.184Z,652
2016-03-02T08:35:59.061Z,620
2016-03-02T08:36:59.252Z,644
2016-03-02T08:37:59.104Z,680
2016-03-02T08:38:59.249Z,696
2016-03-02T08:39:59.252Z,948
2016-03-02T08:40:59.598Z,1308
2016-03-02T08:41:59.227Z,1388
2016-03-02T08:42:59.234Z,1384
2016-03-02T08:43:59.262Z,1292
2016-03-02T08:44:59.275Z,1208
2016-03-02T08:45:59.288Z,1180
2016-03-02T08:46:59.488Z,1152
2016-03-02T08:47:59.301Z,1084
2016-03-02T08:48:59.302Z,1080
2016-03-02T08:49:59.333Z,1120
2016-03-02T08:50:59.335Z,1196
2016-03-02T08:51:59.351Z,1256
2016-03-02T08:52:59.352Z,1268
2016-03-02T08:53:59.385Z,1256
2016-03-02T08:54:59.402Z,1272
2016-03-02T08:55:59.420Z,1256
2016-03-02T08:56:59.438Z,1228
2016-03-02T08:57:59.440Z,1200
2016-03-02T08:58:59.459Z,1208
2016-03-02T08:59:59.493Z,1200
2016-03-02T09:00:59.510Z,1232
2016-03-02T09:01:59.529Z,1208
2016-03-02T09:02:59.688Z,1208
2016-03-02T09:03:59.534Z,1256
2016-03-02T09:04:59.552Z,1244
2016-03-02T09:05:59.399Z,1228
2016-03-02T09:06:59.574Z,1172
2016-03-02T09:07:59.608Z,1192
2016-03-02T09:08:59.610Z,1240
2016-03-02T09:09:59.645Z,1352
2016-03-02T09:10:59.647Z,1384
2016-03-02T09:11:59.681Z,1392
2016-03-02T09:12:59.684Z,1404
2016-03-02T09:13:59.701Z,1384
2016-03-02T09:14:59.736Z,1308
2016-03-02T09:15:59.739Z,1312
2016-03-02T09:16:59.834Z,1400
2016-03-02T09:17:59.760Z,1384
2016-03-02T09:18:59.778Z,1396
2016-03-02T09:19:59.797Z,1392
2016-03-02T09:20:59.815Z,1404
2016-03-02T09:21:59.817Z,1400
2016-03-02T09:22:59.851Z,1364
2016-03-02T09:23:59.869Z,1300
2016-03-02T09:24:59.872Z,1304
2016-03-02T09:25:59.891Z,1328
2016-03-02T09:26:59.909Z,1336
2016-03-02T09:27:59.958Z,1352
2016-03-02T09:28:59.946Z,1368
2016-03-02T09:30:00.027Z,1372
2016-03-02T09:30:59.998Z,1372
2016-03-02T09:32:00.032Z,1368
2016-03-02T09:33:00.019Z,1356
2016-03-02T09:34:00.037Z,1332
2016-03-02T09:35:00.055Z,1320
2016-03-02T09:36:00.074Z,1308
2016-03-02T09:37:00.154Z,1300
2016-03-02T09:38:00.096Z,1296
2016-03-02T09:39:00.223Z,1300
2016-03-02T09:40:00.257Z,1300
2016-03-02T09:41:00.166Z,1312
2016-03-02T09:42:00.199Z,1336
2016-03-02T09:43:00.296Z,1368
2016-03-02T09:44:00.345Z,1388
2016-03-02T09:45:00.223Z,1408
2016-03-02T09:46:00.225Z,1420
2016-03-02T09:47:00.244Z,1432
2016-03-02T09:48:00.262Z,1436
2016-03-02T09:49:00.264Z,1448
2016-03-02T09:50:00.314Z,1456
2016-03-02T09:51:00.317Z,1496
2016-03-02T09:52:00.242Z,1540
2016-03-02T09:53:00.339Z,1572
2016-03-02T09:54:00.372Z,1588
2016-03-02T09:55:00.437Z,1584
2016-03-02T09:56:00.393Z,1624
2016-03-02T09:57:00.411Z,1632
2016-03-02T09:58:00.413Z,1676
2016-03-02T09:59:00.463Z,1708
2016-03-02T10:00:00.529Z,1688
2016-03-02T10:01:00.485Z,1604
2016-03-02T10:02:00.502Z,1612
2016-03-02T10:03:00.569Z,1564
2016-03-02T10:04:00.540Z,1572
2016-03-02T10:05:00.558Z,1540
2016-03-02T10:06:00.591Z,1532
2016-03-02T10:07:00.594Z,1532
2016-03-02T10:08:00.629Z,1516
2016-03-02T10:09:00.615Z,1508
2016-03-02T10:10:00.650Z,1516
2016-03-02T10:11:00.652Z,1528
2016-03-02T10:12:00.671Z,1556
2016-03-02T10:13:00.689Z,1568
2016-03-02T10:14:00.707Z,1576
2016-03-02T10:15:00.725Z,1588
2016-03-02T10:16:00.728Z,1608
2016-03-02T10:17:00.762Z,1600
2016-03-02T10:18:00.780Z,1604
2016-03-02T10:19:00.783Z,1616
2016-03-02T10:20:00.801Z,1628
2016-03-02T10:21:00.851Z,1604
2016-03-02T10:22:00.870Z,1576
2016-03-02T10:23:00.872Z,1644
2016-03-02T10:24:00.875Z,1612
2016-03-02T10:25:00.909Z,1588
2016-03-02T10:26:00.958Z,1576
2016-03-02T10:27:00.930Z,1580
2016-03-02T10:28:00.947Z,1604
2016-03-02T10:29:00.997Z,1616
2016-03-02T10:30:00.969Z,1624
2016-03-02T10:31:01.003Z,1620
2016-03-02T10:32:01.131Z,1628
2016-03-02T10:33:01.055Z,1648
2016-03-02T10:34:01.042Z,1684
2016-03-02T10:35:01.060Z,1692
2016-03-02T10:36:01.094Z,1728
2016-03-02T10:37:01.112Z,1728
2016-03-02T10:38:01.132Z,1744
2016-03-02T10:39:01.134Z,1760
2016-03-02T10:40:01.277Z,1780
2016-03-02T10:41:01.171Z,1796
2016-03-02T10:42:01.236Z,1820
2016-03-02T10:43:01.207Z,1840
2016-03-02T10:44:01.257Z,1852
2016-03-02T10:45:01.243Z,1880
2016-03-02T10:46:01.278Z,1904
2016-03-02T10:47:01.296Z,1912
2016-03-02T10:48:01.298Z,1908
2016-03-02T10:49:01.317Z,1900
2016-03-02T10:50:01.351Z,1880
2016-03-02T10:51:01.369Z,1776
2016-03-02T10:52:01.387Z,1868
2016-03-02T10:53:01.593Z,1864
2016-03-02T10:54:01.424Z,1776
2016-03-02T10:55:01.473Z,1716
2016-03-02T10:56:01.695Z,1744
2016-03-02T10:57:01.745Z,1768
2016-03-02T10:58:01.592Z,1708
2016-03-02T10:59:01.516Z,1776
2016-03-02T11:00:01.519Z,1792
2016-03-02T11:01:01.646Z,1860
2016-03-02T11:02:01.664Z,1848
2016-03-02T11:03:01.574Z,1776
2016-03-02T11:04:01.591Z,1880
2016-03-02T11:05:01.626Z,1888
2016-03-02T11:06:01.628Z,1932
2016-03-02T11:07:01.662Z,1884
2016-03-02T11:08:01.681Z,1876
2016-03-02T11:09:01.761Z,1892
2016-03-02T11:10:01.717Z,1824
2016-03-02T11:11:01.829Z,1668
2016-03-02T11:12:01.973Z,1504
2016-03-02T11:13:01.741Z,1416
2016-03-02T11:14:01.837Z,1432
2016-03-02T11:15:01.840Z,1528
2016-03-02T11:16:01.859Z,1524
2016-03-02T11:17:01.845Z,1540
2016-03-02T11:18:01.864Z,1628
2016-03-02T11:19:01.867Z,1476
2016-03-02T11:20:01.901Z,1484
2016-03-02T11:21:01.903Z,1544
2016-03-02T11:22:01.765Z,1548
2016-03-02T11:23:02.033Z,1644
2016-03-02T11:24:02.176Z,1732
2016-03-02T11:25:02.054Z,1712
2016-03-02T11:26:02.011Z,1760
2016-03-02T11:27:02.060Z,1836
2016-03-02T11:28:02.062Z,1844
2016-03-02T11:29:02.159Z,1824
2016-03-02T11:30:02.067Z,1880
2016-03-02T11:31:02.086Z,1940
2016-03-02T11:32:02.136Z,1956
2016-03-02T11:33:02.123Z,1956
2016-03-02T11:34:02.282Z,1932
2016-03-02T11:35:02.347Z,2000
2016-03-02T11:36:02.194Z,2004
2016-03-02T11:37:02.321Z,1976
2016-03-02T11:38:02.214Z,1980
2016-03-02T11:39:02.264Z,1968
2016-03-02T11:40:02.408Z,1864
2016-03-02T11:41:02.441Z,1888
2016-03-02T11:42:02.303Z,1864
2016-03-02T11:43:02.415Z,1740
2016-03-02T11:44:02.449Z,1592
2016-03-02T11:45:02.468Z,1616
2016-03-02T11:46:02.471Z,1664
2016-03-02T11:47:02.504Z,1744
2016-03-02T11:48:02.413Z,1760
2016-03-02T11:49:02.447Z,1812
2016-03-02T11:50:02.465Z,1808
2016-03-02T11:51:02.468Z,1804
2016-03-02T11:52:02.517Z,1664
2016-03-02T11:53:02.537Z,1640
2016-03-02T11:54:02.554Z,1452
2016-03-02T11:55:02.557Z,1472
2016-03-02T11:56:02.606Z,1496
2016-03-02T11:57:02.609Z,1620
2016-03-02T11:58:02.597Z,1604
2016-03-02T11:59:02.630Z,1564
2016-03-02T12:00:02.695Z,1484
2016-03-02T12:01:02.808Z,1396
2016-03-02T12:02:02.825Z,1316
2016-03-02T12:03:02.814Z,1296
2016-03-02T12:04:02.863Z,1252
2016-03-02T12:05:02.740Z,1348
2016-03-02T12:06:02.770Z,1448
2016-03-02T12:07:02.773Z,1360
2016-03-02T12:08:02.823Z,1480
2016-03-02T12:09:02.935Z,1564
2016-03-02T12:10:02.953Z,1528
2016-03-02T12:11:02.862Z,1156
2016-03-02T12:12:02.990Z,1052
2016-03-02T12:13:02.898Z,1188
2016-03-02T12:14:02.917Z,1168
2016-03-02T12:15:03.028Z,1072
2016-03-02T12:16:03.079Z,1344
2016-03-02T12:17:02.972Z,1228
2016-03-02T12:18:03.006Z,1352
2016-03-02T12:19:03.008Z,1156
2016-03-02T12:20:03.027Z,740
2016-03-02T12:21:03.061Z,840
2016-03-02T12:22:03.064Z,608
2016-03-02T12:23:03.082Z,696
2016-03-02T12:24:03.100Z,684
2016-03-02T12:25:03.244Z,556
2016-03-02T12:26:03.230Z,592
2016-03-02T12:27:03.249Z,420
2016-03-02T12:28:03.188Z,480
2016-03-02T12:29:03.332Z,440
2016-03-02T12:30:03.241Z,448
2016-03-02T12:31:03.243Z,608
2016-03-02T12:32:03.340Z,684
2016-03-02T12:33:03.280Z,720
2016-03-02T12:34:03.315Z,700
2016-03-02T12:35:03.473Z,768
2016-03-02T12:36:03.461Z,768
2016-03-02T12:37:03.587Z,752
2016-03-02T12:38:03.451Z,748
2016-03-02T12:39:03.391Z,808
2016-03-02T12:40:03.409Z,1088
2016-03-02T12:41:03.442Z,1048
2016-03-02T12:42:03.445Z,1008
2016-03-02T12:43:03.479Z,936
2016-03-02T12:44:03.592Z,948
2016-03-02T12:45:03.500Z,960
2016-03-02T12:46:03.534Z,1044
2016-03-02T12:47:03.553Z,1196
2016-03-02T12:48:03.571Z,1200
2016-03-02T12:49:03.605Z,1108
2016-03-02T12:50:03.608Z,1284
2016-03-02T12:51:03.626Z,1400
2016-03-02T12:52:03.645Z,1384
2016-03-02T12:53:03.663Z,1376
2016-03-02T12:54:03.774Z,1400
2016-03-02T12:55:03.699Z,1412
2016-03-02T12:56:03.750Z,1432
2016-03-02T12:57:03.736Z,1432
2016-03-02T12:58:03.770Z,1416
2016-03-02T12:59:03.772Z,1468
2016-03-02T13:00:03.838Z,1568
2016-03-02T13:01:03.935Z,1668
2016-03-02T13:02:03.843Z,1728
2016-03-02T13:03:04.065Z,1784
2016-03-02T13:04:03.880Z,1828
2016-03-02T13:05:03.992Z,1844
2016-03-02T13:06:04.011Z,1856
2016-03-02T13:07:03.951Z,1840
2016-03-02T13:08:03.954Z,1796
2016-03-02T13:09:03.972Z,1720
2016-03-02T13:10:03.990Z,1664
2016-03-02T13:11:04.008Z,1644
2016-03-02T13:12:03.293Z,1628
2016-03-02T13:13:04.154Z,1580
2016-03-02T13:14:04.079Z,1512
2016-03-02T13:15:04.082Z,1456
2016-03-02T13:16:04.115Z,1416
2016-03-02T13:17:04.118Z,1364
2016-03-02T13:18:04.168Z,1352
2016-03-02T13:19:04.154Z,1372
2016-03-02T13:20:04.282Z,1376
2016-03-02T13:21:04.301Z,1376
2016-03-02T13:22:04.320Z,1376
2016-03-02T13:23:04.244Z,1364
2016-03-02T13:24:04.372Z,1344
2016-03-02T13:25:04.343Z,1348
2016-03-02T13:26:04.314Z,1352
2016-03-02T13:27:04.426Z,1340
2016-03-02T13:28:04.351Z,1348
2016-03-02T13:29:04.385Z,1356
2016-03-02T13:30:04.388Z,1352
2016-03-02T13:31:04.391Z,1308
2016-03-02T13:32:04.550Z,1272
2016-03-02T13:33:04.458Z,1208
2016-03-02T13:34:04.492Z,1152
2016-03-02T13:35:04.495Z,1100
2016-03-02T13:36:04.482Z,1068
2016-03-02T13:37:04.547Z,1032
2016-03-02T13:38:04.752Z,984
2016-03-02T13:39:04.647Z,956
2016-03-02T13:40:04.571Z,936
2016-03-02T13:41:04.588Z,900
2016-03-02T13:42:04.717Z,828
2016-03-02T13:43:04.704Z,764
2016-03-02T13:44:04.676Z,700
2016-03-02T13:45:04.663Z,656
2016-03-02T13:46:04.696Z,640
2016-03-02T13:47:04.699Z,632
2016-03-02T13:48:04.826Z,632
2016-03-02T13:49:04.736Z,628
2016-03-02T13:50:04.801Z,624
2016-03-02T13:51:04.772Z,608
2016-03-02T13:52:04.807Z,604
2016-03-02T13:53:04.825Z,604
2016-03-02T13:54:04.859Z,612
2016-03-02T13:55:04.705Z,604
2016-03-02T13:56:04.879Z,580
2016-03-02T13:57:04.898Z,552
2016-03-02T13:58:04.916Z,536
2016-03-02T13:59:04.934Z,532
2016-03-02T14:00:05.109Z,536
2016-03-02T14:01:05.159Z,548
2016-03-02T14:02:05.083Z,560